Bookmark and Share
Track history (hours):
 

Alexander 3

Last reported at 2014-Apr-18 13:33 UTC. Time now 2014-Apr-18 16:18 UTC.
Position N 37°58' E 023°33'.

Length 38 m; draft 5.6 m.

Type: Tug. MMSI: 240733000.

NotesDate/timePositionNaut miles runAvg speedWind from/ knotsBaromVisibWave heightAir tempDewpointWater temp
2014-Apr-18 13:33N 37°58' E 023°33'4 4.1
2014-Apr-18 12:33N 38°02' E 023°32'0 0.3
2014-Apr-18 11:29N 38°02' E 023°32'0 0.1
2014-Apr-18 10:33N 38°02' E 023°33'5 5.4
2014-Apr-18 09:32N 37°57' E 023°36'0 0.0
2014-Apr-18 08:33N 37°57' E 023°36'0 0.0
2014-Apr-18 07:33N 37°57' E 023°36'1 0.7
2014-Apr-18 06:33N 37°57' E 023°35'0 0.1
2014-Apr-18 05:33N 37°57' E 023°35'2 1.9
2014-Apr-18 04:32N 37°56' E 023°37'0 0.0
2014-Apr-18 03:31N 37°56' E 023°37'0 0.0
2014-Apr-18 02:33N 37°56' E 023°37'1 0.1
2014-Apr-17 11:34N 37°57' E 023°36'0 0.1
2014-Apr-17 10:33N 37°57' E 023°36'0 0.0
2014-Apr-17 09:33N 37°57' E 023°36'0 0.0
2014-Apr-17 08:33N 37°57' E 023°36'0 0.0
2014-Apr-17 07:33N 37°57' E 023°36'0 0.0
2014-Apr-17 06:33N 37°57' E 023°36'1 0.6
2014-Apr-17 05:33N 37°58' E 023°36'2 1.5
2014-Apr-17 04:33N 37°56' E 023°36'1 1.3
2014-Apr-17 03:33N 37°57' E 023°35'2 1.8
2014-Apr-17 02:33N 37°56' E 023°37'0 0.0
2014-Apr-16 17:33N 37°56' E 023°37'0 0.0
2014-Apr-16 16:33N 37°56' E 023°37'1 1.5
2014-Apr-16 15:33N 37°57' E 023°37'0 0.0
2014-Apr-16 14:33N 37°57' E 023°37'0 0.0
2014-Apr-16 13:33N 37°57' E 023°37'0 0.0
2014-Apr-16 12:33N 37°57' E 023°37'0 0.0
2014-Apr-16 11:33N 37°57' E 023°37'1 1.0
2014-Apr-16 10:33N 37°57' E 023°35'0 0.4
2014-Apr-16 09:34N 37°57' E 023°36'0 0.1
2014-Apr-16 08:33N 37°57' E 023°36'2 1.8
2014-Apr-16 07:33N 37°58' E 023°34'0 0.0
2014-Apr-16 06:32N 37°58' E 023°34'1 1.1
2014-Apr-16 05:34N 37°57' E 023°35'1 1.5
2014-Apr-16 04:33N 37°56' E 023°35'2 1.8
2014-Apr-16 03:33N 37°56' E 023°37'0 0.0
2014-Apr-16 02:33N 37°56' E 023°37'0 0.0
2014-Apr-16 01:33N 37°56' E 023°37'0 0.0
2014-Apr-16 00:33N 37°56' E 023°37'0 0.0
2014-Apr-15 23:33N 37°56' E 023°37'0 0.0
2014-Apr-15 22:33N 37°56' E 023°37'8 3.7
2014-Apr-15 20:22N 38°02' E 023°30'0 0.0
2014-Apr-15 17:34N 38°02' E 023°30'0 0.0
2014-Apr-15 16:19N 38°02' E 023°30'0 0.0
2014-Apr-15 15:27N 38°02' E 023°30'0 0.0
2014-Apr-15 12:33N 38°02' E 023°30'0 0.0
2014-Apr-15 10:30N 38°02' E 023°30'0 0.0
2014-Apr-15 02:33N 38°02' E 023°30'0 0.0
2014-Apr-14 18:31N 38°02' E 023°30'0 0.0
2014-Apr-14 15:29N 38°02' E 023°30'8 0.2
2014-Apr-12 12:32N 37°56' E 023°37'1 0.5
2014-Apr-12 11:33N 37°56' E 023°37'1 0.5
2014-Apr-12 10:33N 37°56' E 023°37'2 0.1
2014-Apr-11 18:33N 37°57' E 023°35'8 7.8
2014-Apr-11 17:33N 37°60' E 023°26'3 2.2
2014-Apr-11 16:16N 37°58' E 023°23'9 1.1
2014-Apr-11 08:33N 37°57' E 023°34'0 0.0
2014-Apr-11 07:33N 37°57' E 023°34'0 0.0
2014-Apr-11 06:33N 37°57' E 023°34'2 1.6
2014-Apr-11 05:33N 37°57' E 023°36'0 0.2
2014-Apr-11 04:33N 37°57' E 023°36'1 0.5
2014-Apr-11 03:33N 37°57' E 023°36'1 0.9
2014-Apr-11 02:33N 37°56' E 023°37'0 0.0
2014-Apr-10 12:33N 37°56' E 023°37'7 3.6
2014-Apr-10 10:33N 38°01' E 023°31'5 5.4
2014-Apr-10 09:33N 37°57' E 023°35'2 2.0
2014-Apr-10 08:33N 37°56' E 023°37'0 0.0
2014-Apr-10 07:32N 37°56' E 023°37'0 0.0
2014-Apr-10 06:32N 37°56' E 023°37'0 0.0
2014-Apr-10 05:33N 37°56' E 023°37'1 0.8
2014-Apr-10 04:32N 37°56' E 023°36'2 2.4
2014-Apr-10 03:33N 37°58' E 023°34'0 0.0
2014-Apr-10 02:33N 37°58' E 023°34'0 0.0
2014-Apr-09 02:33N 37°58' E 023°34'3 2.5
2014-Apr-09 01:33N 37°56' E 023°37'1 0.6
2014-Apr-09 00:33N 37°56' E 023°37'0 0.0
2014-Apr-08 23:33N 37°56' E 023°37'0 0.0
2014-Apr-08 22:33N 37°56' E 023°37'0 0.0
2014-Apr-08 21:30N 37°56' E 023°37'0 0.0
2014-Apr-08 20:32N 37°56' E 023°37'0 0.0
2014-Apr-08 19:33N 37°56' E 023°37'0 0.0
2014-Apr-08 18:30N 37°56' E 023°37'0 0.0
2014-Apr-08 17:32N 37°56' E 023°37'0 0.0
2014-Apr-08 16:32N 37°56' E 023°37'0 0.0
2014-Apr-08 15:32N 37°56' E 023°37'0 0.0
2014-Apr-08 14:32N 37°56' E 023°37'0 0.0
2014-Apr-08 13:33N 37°56' E 023°37'  

Dump ship's entire track history

sailing weather and tide predictions

Alexander 3 — SW6137 — position and weather